createdAt,value
2017-06-02T00:00:35.159Z,61.78
2017-06-02T00:03:02.811Z,61.95
2017-06-02T00:05:30.391Z,61.72
2017-06-02T00:07:57.983Z,61.68
2017-06-02T00:10:25.568Z,61.32
2017-06-02T00:12:53.198Z,60.89
2017-06-02T00:15:20.727Z,61.17
2017-06-02T00:17:48.363Z,61.61
2017-06-02T00:20:15.972Z,60.61
2017-06-02T00:22:43.545Z,60.30
2017-06-02T00:25:11.028Z,59.96
2017-06-02T00:27:38.600Z,59.75
2017-06-02T00:30:06.109Z,60.77
2017-06-02T00:32:34.006Z,61.95
2017-06-02T00:35:01.563Z,62.33
2017-06-02T00:37:29.133Z,62.42
2017-06-02T00:39:56.740Z,62.35
2017-06-02T00:42:24.296Z,61.80
2017-06-02T00:44:51.871Z,62.18
2017-06-02T00:47:19.435Z,62.50
2017-06-02T00:49:47.064Z,62.49
2017-06-02T00:52:14.620Z,62.71
2017-06-02T00:54:42.266Z,63.12
2017-06-02T00:57:09.817Z,62.78
2017-06-02T00:59:37.399Z,62.34
2017-06-02T01:02:04.923Z,62.75
2017-06-02T01:04:32.487Z,62.74
2017-06-02T01:07:00.013Z,63.51
2017-06-02T01:09:27.628Z,63.77
2017-06-02T01:11:55.153Z,63.30
2017-06-02T01:14:22.728Z,63.84
2017-06-02T01:16:50.263Z,64.57
2017-06-02T01:19:17.829Z,64.89
2017-06-02T01:21:45.371Z,63.79
2017-06-02T01:24:13.029Z,62.50
2017-06-02T01:26:40.552Z,61.56
2017-06-02T01:29:08.186Z,61.12
2017-06-02T01:31:35.751Z,61.39
2017-06-02T01:34:03.270Z,61.17
2017-06-02T01:36:30.831Z,62.88
2017-06-02T01:38:58.363Z,63.98
2017-06-02T01:41:25.935Z,63.85
2017-06-02T01:43:53.452Z,64.47
2017-06-02T01:46:21.023Z,64.92
2017-06-02T01:48:48.555Z,64.97
2017-06-02T01:51:16.111Z,65.49
2017-06-02T01:53:43.640Z,64.28
2017-06-02T01:56:11.200Z,63.13
2017-06-02T01:58:38.727Z,62.67
2017-06-02T02:01:06.291Z,63.84
2017-06-02T02:03:33.826Z,65.33
2017-06-02T02:06:01.392Z,65.31
2017-06-02T02:08:28.916Z,65.06
2017-06-02T02:10:56.540Z,64.38
2017-06-02T02:13:24.100Z,64.53
2017-06-02T02:15:51.671Z,64.35
2017-06-02T02:18:19.318Z,64.51
2017-06-02T02:20:46.883Z,64.54
2017-06-02T02:23:14.487Z,63.97
2017-06-02T02:25:42.051Z,65.09
2017-06-02T02:28:09.691Z,65.16
2017-06-02T02:30:37.255Z,65.24
2017-06-02T02:33:04.820Z,65.39
2017-06-02T02:35:32.376Z,65.35
2017-06-02T02:37:59.935Z,65.58
2017-06-02T02:40:27.500Z,65.84
2017-06-02T02:42:55.070Z,65.91
2017-06-02T02:45:22.603Z,65.76
2017-06-02T02:47:50.168Z,65.99
2017-06-02T02:50:17.741Z,65.41
2017-06-02T02:52:45.314Z,66.11
2017-06-02T02:55:12.844Z,66.53
2017-06-02T02:57:40.512Z,66.61
2017-06-02T03:00:08.122Z,66.36
2017-06-02T03:02:35.835Z,66.10
2017-06-02T03:05:03.384Z,65.91
2017-06-02T03:07:30.920Z,66.58
2017-06-02T03:09:58.523Z,66.56
2017-06-02T03:12:26.116Z,66.75
2017-06-02T03:14:53.696Z,66.86
2017-06-02T03:17:21.302Z,67.17
2017-06-02T03:19:48.844Z,66.67
2017-06-02T03:22:16.397Z,65.58
2017-06-02T03:24:43.963Z,64.75
2017-06-02T03:27:11.494Z,65.49
2017-06-02T03:29:39.116Z,65.82
2017-06-02T03:32:06.644Z,66.11
2017-06-02T03:34:34.211Z,65.97
2017-06-02T03:37:01.751Z,66.38
2017-06-02T03:39:29.312Z,66.45
2017-06-02T03:41:56.850Z,65.43
2017-06-02T03:44:24.414Z,65.01
2017-06-02T03:46:51.935Z,63.86
2017-06-02T03:49:19.491Z,63.68
2017-06-02T03:51:47.011Z,63.23
2017-06-02T03:54:15.004Z,63.07
2017-06-02T03:56:42.531Z,62.92
2017-06-02T03:59:10.107Z,64.09
2017-06-02T04:01:37.735Z,65.30
2017-06-02T04:04:05.306Z,65.86
2017-06-02T04:06:32.879Z,65.54
2017-06-02T04:09:00.424Z,65.56
2017-06-02T04:11:27.989Z,66.26
2017-06-02T04:13:55.537Z,66.52
2017-06-02T04:16:23.108Z,66.78
2017-06-02T04:18:50.651Z,67.02
2017-06-02T04:21:18.220Z,66.97
2017-06-02T04:23:45.744Z,67.10
2017-06-02T04:26:13.384Z,67.21
2017-06-02T04:28:40.958Z,66.99
2017-06-02T04:31:08.520Z,67.20
2017-06-02T04:33:36.060Z,67.14
2017-06-02T04:36:03.615Z,66.90
2017-06-02T04:38:31.176Z,66.06
2017-06-02T04:40:58.727Z,65.40
2017-06-02T04:43:26.265Z,65.08
2017-06-02T04:45:53.839Z,64.68
2017-06-02T04:48:21.413Z,64.78
2017-06-02T04:50:49.895Z,65.26
2017-06-02T04:53:17.791Z,65.17
2017-06-02T04:55:45.399Z,65.27
2017-06-02T04:58:13.001Z,65.53
2017-06-02T05:00:40.544Z,65.88
2017-06-02T05:03:08.102Z,65.74
2017-06-02T05:05:35.679Z,66.24
2017-06-02T05:08:03.244Z,66.12
2017-06-02T05:10:30.775Z,65.74
2017-06-02T05:12:58.362Z,65.62
2017-06-02T05:15:25.939Z,65.65
2017-06-02T05:17:53.539Z,65.11
2017-06-02T05:20:21.081Z,65.16
2017-06-02T05:22:48.659Z,64.84
2017-06-02T05:25:16.198Z,63.81
2017-06-02T05:27:43.841Z,63.43
2017-06-02T05:30:11.383Z,63.62
2017-06-02T05:32:38.982Z,63.59
2017-06-02T05:35:06.511Z,63.10
2017-06-02T05:37:34.027Z,62.90
2017-06-02T05:40:01.606Z,62.93
2017-06-02T05:42:29.127Z,62.51
2017-06-02T05:44:56.719Z,62.77
2017-06-02T05:47:25.407Z,62.19
2017-06-02T05:49:53.005Z,62.20
2017-06-02T05:52:20.544Z,60.94
2017-06-02T05:54:48.116Z,60.27
2017-06-02T05:57:15.635Z,59.94
2017-06-02T05:59:43.288Z,60.09
2017-06-02T06:02:10.819Z,59.96
2017-06-02T06:04:38.467Z,60.25
2017-06-02T06:07:06.015Z,59.58
2017-06-02T06:09:33.603Z,59.80
2017-06-02T06:12:01.117Z,59.58
2017-06-02T06:14:28.765Z,59.97
2017-06-02T06:16:56.324Z,59.57
2017-06-02T06:19:23.899Z,59.29
2017-06-02T06:21:51.477Z,58.80
2017-06-02T06:24:19.412Z,58.73
2017-06-02T06:26:46.956Z,58.08
2017-06-02T06:29:14.494Z,57.49
2017-06-02T06:31:42.056Z,57.29
2017-06-02T06:34:09.603Z,57.64
2017-06-02T06:36:37.171Z,57.98
2017-06-02T06:39:04.676Z,57.64
2017-06-02T06:41:32.235Z,57.70
2017-06-02T06:43:59.801Z,57.51
2017-06-02T06:46:27.388Z,56.96
2017-06-02T06:48:54.948Z,56.85
2017-06-02T06:51:22.503Z,56.83
2017-06-02T06:53:50.023Z,56.78
2017-06-02T06:56:17.743Z,57.21
2017-06-02T06:58:45.290Z,57.71
2017-06-02T07:01:12.813Z,57.86
2017-06-02T07:03:40.383Z,57.79
2017-06-02T07:06:07.912Z,57.98
2017-06-02T07:08:35.483Z,57.70
2017-06-02T07:11:03.016Z,57.65
2017-06-02T07:13:30.841Z,57.50
2017-06-02T07:15:58.468Z,57.36
2017-06-02T07:18:26.039Z,57.20
2017-06-02T07:20:53.612Z,56.81
2017-06-02T07:23:21.212Z,56.89
2017-06-02T07:25:48.784Z,57.81
2017-06-02T07:28:16.311Z,57.04
2017-06-02T07:30:43.988Z,57.41
2017-06-02T07:33:11.511Z,57.37
2017-06-02T07:35:39.056Z,57.14
2017-06-02T07:38:06.622Z,57.52
2017-06-02T07:40:34.143Z,57.02
2017-06-02T07:43:02.328Z,57.21
2017-06-02T07:45:30.879Z,56.94
2017-06-02T07:47:58.779Z,56.68
2017-06-02T07:50:26.788Z,57.04
2017-06-02T07:52:54.700Z,57.05
2017-06-02T07:55:22.426Z,56.63
2017-06-02T07:57:50.140Z,56.39
2017-06-02T08:00:17.775Z,56.22
2017-06-02T08:02:45.299Z,55.89
2017-06-02T08:05:12.966Z,56.13
2017-06-02T08:07:40.503Z,56.00
2017-06-02T08:10:08.042Z,55.71
2017-06-02T08:12:35.610Z,54.98
2017-06-02T08:15:03.162Z,54.75
2017-06-02T08:17:30.775Z,54.49
2017-06-02T08:19:58.356Z,55.07
2017-06-02T08:22:26.919Z,54.98
2017-06-02T08:24:54.726Z,54.84
2017-06-02T08:27:22.480Z,55.04
2017-06-02T08:29:50.299Z,54.17
2017-06-02T08:32:17.831Z,54.08
2017-06-02T08:34:45.559Z,54.21
2017-06-02T08:37:13.167Z,54.25
2017-06-02T08:39:40.704Z,54.51
2017-06-02T08:42:08.288Z,53.68
2017-06-02T08:44:35.836Z,53.36
2017-06-02T08:47:03.416Z,53.72
2017-06-02T08:49:30.949Z,53.74
2017-06-02T08:51:58.695Z,53.75
2017-06-02T08:54:26.364Z,53.20
2017-06-02T08:56:54.113Z,53.38
2017-06-02T08:59:21.750Z,53.67
2017-06-02T09:01:49.343Z,53.14
2017-06-02T09:04:16.930Z,53.24
2017-06-02T09:06:44.523Z,53.06
2017-06-02T09:09:12.043Z,53.09
2017-06-02T09:12:15.234Z,52.72
2017-06-02T09:14:42.777Z,51.41
2017-06-02T09:17:10.459Z,51.66
2017-06-02T09:19:38.044Z,51.70
2017-06-02T09:22:05.574Z,51.23
2017-06-02T09:24:33.128Z,51.55
2017-06-02T09:27:00.721Z,51.32
2017-06-02T09:29:28.273Z,51.13
2017-06-02T09:31:55.872Z,51.31
2017-06-02T09:34:23.538Z,51.41
2017-06-02T09:36:51.057Z,50.75
2017-06-02T09:39:18.579Z,51.08
2017-06-02T09:41:46.135Z,49.64
2017-06-02T09:44:13.666Z,50.70
2017-06-02T09:46:41.428Z,50.93
2017-06-02T09:49:08.951Z,50.04
2017-06-02T09:51:36.612Z,49.37
2017-06-02T09:54:04.276Z,49.61
2017-06-02T09:56:31.783Z,50.08
2017-06-02T09:58:59.447Z,49.53
2017-06-02T10:01:26.974Z,48.97
2017-06-02T10:03:54.483Z,48.28
2017-06-02T10:06:22.039Z,48.17
2017-06-02T10:08:49.562Z,48.41
2017-06-02T10:11:17.264Z,48.33
2017-06-02T10:13:44.795Z,48.18
2017-06-02T10:16:12.330Z,47.65
2017-06-02T10:18:39.951Z,46.45
2017-06-02T10:21:07.446Z,47.04
2017-06-02T10:23:35.420Z,47.49
2017-06-02T10:26:02.946Z,46.48
2017-06-02T10:28:30.463Z,47.20
2017-06-02T10:30:58.036Z,46.74
2017-06-02T10:33:25.546Z,46.00
2017-06-02T10:35:53.096Z,46.31
2017-06-02T10:38:20.652Z,45.78
2017-06-02T10:40:48.312Z,45.50
2017-06-02T10:43:15.843Z,44.42
2017-06-02T10:45:43.355Z,45.40
2017-06-02T10:48:11.003Z,44.84
2017-06-02T10:50:38.537Z,44.46
2017-06-02T10:53:06.167Z,43.81
2017-06-02T10:55:33.702Z,43.63
2017-06-02T10:58:01.243Z,44.26
2017-06-02T11:00:28.795Z,43.95
2017-06-02T11:02:56.383Z,43.65
2017-06-02T11:05:24.122Z,43.57
2017-06-02T11:07:51.646Z,43.39
2017-06-02T11:10:19.304Z,42.87
2017-06-02T11:12:46.827Z,41.36
2017-06-02T11:15:14.355Z,37.87
2017-06-02T11:17:41.919Z,39.23
2017-06-02T11:20:09.440Z,40.38
2017-06-02T11:22:37.365Z,39.69
2017-06-02T11:25:04.926Z,40.45
2017-06-02T11:27:32.463Z,38.39
2017-06-02T11:30:00.047Z,39.94
2017-06-02T11:32:27.572Z,40.17
2017-06-02T11:34:55.184Z,39.17
2017-06-02T11:37:22.727Z,38.94
2017-06-02T11:39:50.421Z,36.52
2017-06-02T11:42:17.956Z,37.15
2017-06-02T11:44:45.511Z,37.58
2017-06-02T11:47:13.093Z,37.35
2017-06-02T11:49:40.745Z,37.56
2017-06-02T11:52:08.480Z,38.15
2017-06-02T11:54:36.021Z,37.45
2017-06-02T11:57:03.548Z,37.58
2017-06-02T11:59:31.156Z,36.59
2017-06-02T12:01:58.691Z,36.35
2017-06-02T12:04:26.567Z,35.98
2017-06-02T12:06:54.087Z,36.78
2017-06-02T12:09:21.625Z,35.78
2017-06-02T12:11:49.191Z,35.98
2017-06-02T12:14:16.715Z,36.43
2017-06-02T12:16:44.251Z,36.72
2017-06-02T12:19:11.802Z,36.31
2017-06-02T12:21:39.387Z,35.54
2017-06-02T12:24:06.924Z,35.60
2017-06-02T12:26:34.456Z,35.83
2017-06-02T12:29:02.012Z,36.50
2017-06-02T12:31:29.659Z,36.36
2017-06-02T12:33:57.237Z,36.37
2017-06-02T12:36:24.776Z,36.25
2017-06-02T12:38:52.298Z,36.10
2017-06-02T12:41:19.919Z,35.98
2017-06-02T12:43:47.447Z,35.53
2017-06-02T12:46:15.497Z,35.80
2017-06-02T12:48:43.088Z,36.20
2017-06-02T12:51:10.598Z,36.51
2017-06-02T12:53:38.159Z,35.48
2017-06-02T12:56:05.678Z,35.53
2017-06-02T12:58:33.263Z,35.45
2017-06-02T13:01:00.780Z,35.59
2017-06-02T13:03:28.292Z,34.60
2017-06-02T13:05:55.852Z,35.23
2017-06-02T13:08:23.509Z,33.55
2017-06-02T13:10:51.129Z,33.97
2017-06-02T13:13:18.646Z,33.84
2017-06-02T13:15:46.234Z,34.49
2017-06-02T13:18:13.791Z,34.75
2017-06-02T13:20:41.307Z,34.67
2017-06-02T13:23:08.851Z,35.37
2017-06-02T13:25:36.398Z,33.93
2017-06-02T13:28:03.967Z,35.06
2017-06-02T13:30:31.496Z,34.94
2017-06-02T13:32:59.011Z,35.03
2017-06-02T13:35:26.555Z,35.14
2017-06-02T13:37:54.080Z,35.07
2017-06-02T13:40:21.692Z,34.88
2017-06-02T13:42:49.363Z,34.68
2017-06-02T13:45:16.929Z,33.78
2017-06-02T13:47:44.486Z,33.10
2017-06-02T13:50:12.079Z,33.80
2017-06-02T13:52:39.686Z,34.02
2017-06-02T13:55:07.199Z,32.96
2017-06-02T13:57:34.761Z,32.98
2017-06-02T14:00:02.339Z,32.87
2017-06-02T14:02:29.934Z,32.73
2017-06-02T14:04:57.500Z,32.67
2017-06-02T14:07:25.019Z,32.93
2017-06-02T14:09:52.736Z,33.30
2017-06-02T14:12:20.339Z,33.26
2017-06-02T14:14:47.916Z,33.20
2017-06-02T14:17:15.449Z,33.20
2017-06-02T14:19:43.363Z,32.91
2017-06-02T14:22:10.883Z,33.17
2017-06-02T14:24:38.424Z,33.10
2017-06-02T14:27:06.004Z,33.50
2017-06-02T14:29:33.520Z,34.08
2017-06-02T14:32:01.097Z,32.84
2017-06-02T14:34:28.659Z,33.42
2017-06-02T14:36:57.007Z,33.98
2017-06-02T14:39:24.543Z,33.85
2017-06-02T14:41:52.080Z,32.96
2017-06-02T14:44:19.806Z,33.11
2017-06-02T14:46:47.319Z,33.91
2017-06-02T14:49:14.883Z,32.97
2017-06-02T14:51:42.439Z,34.51
2017-06-02T14:54:09.975Z,33.53
2017-06-02T14:56:37.517Z,34.05
2017-06-02T14:59:05.160Z,33.96
2017-06-02T15:01:32.684Z,33.90
2017-06-02T15:04:00.236Z,32.93
2017-06-02T15:06:27.807Z,33.03
2017-06-02T15:08:55.359Z,33.42
2017-06-02T15:11:22.894Z,34.69
2017-06-02T15:13:50.873Z,32.35
2017-06-02T15:16:18.427Z,33.07
2017-06-02T15:18:45.992Z,33.80
2017-06-02T15:21:13.567Z,33.79
2017-06-02T15:23:41.076Z,33.87
2017-06-02T15:26:08.640Z,33.68
2017-06-02T15:28:36.156Z,34.05
2017-06-02T15:31:03.813Z,34.13
2017-06-02T15:33:31.324Z,33.56
2017-06-02T15:35:58.899Z,33.06
2017-06-02T15:38:26.484Z,33.60
2017-06-02T15:40:54.030Z,33.41
2017-06-02T15:43:21.693Z,32.48
2017-06-02T15:45:49.259Z,32.35
2017-06-02T15:48:16.871Z,32.01
2017-06-02T15:50:44.417Z,31.35
2017-06-02T15:53:11.965Z,31.67
2017-06-02T15:55:39.483Z,31.33
2017-06-02T15:58:07.115Z,31.11
2017-06-02T16:00:34.631Z,30.64
2017-06-02T16:03:02.154Z,31.50
2017-06-02T16:05:29.700Z,30.73
2017-06-02T16:07:57.243Z,35.19
2017-06-02T16:10:24.856Z,39.51
2017-06-02T16:12:52.416Z,41.11
2017-06-02T16:15:20.024Z,42.40
2017-06-02T16:17:47.568Z,43.79
2017-06-02T16:20:15.148Z,44.79
2017-06-02T16:22:42.675Z,43.95
2017-06-02T16:25:11.204Z,42.50
2017-06-02T16:27:38.777Z,43.75
2017-06-02T16:30:06.300Z,44.89
2017-06-02T16:32:33.886Z,44.27
2017-06-02T16:35:01.496Z,44.89
2017-06-02T16:37:33.136Z,44.67
2017-06-02T16:40:00.921Z,45.17
2017-06-02T16:42:28.756Z,44.79
2017-06-02T16:44:56.510Z,44.77
2017-06-02T16:47:26.748Z,44.42
2017-06-02T16:49:54.658Z,44.85
2017-06-02T16:52:22.210Z,46.04
2017-06-02T16:54:49.859Z,47.38
2017-06-02T16:57:17.438Z,48.76
2017-06-02T16:59:45.139Z,50.23
2017-06-02T17:02:12.703Z,51.36
2017-06-02T17:04:40.223Z,51.66
2017-06-02T17:07:07.775Z,51.52
2017-06-02T17:09:35.306Z,52.11
2017-06-02T17:12:03.421Z,51.85
2017-06-02T17:14:30.967Z,51.66
2017-06-02T17:16:58.885Z,51.56
2017-06-02T17:19:26.419Z,51.46
2017-06-02T17:21:54.009Z,51.50
2017-06-02T17:24:21.646Z,51.60
2017-06-02T17:26:49.239Z,52.18
2017-06-02T17:29:16.854Z,51.66
2017-06-02T17:31:44.391Z,52.06
2017-06-02T17:34:11.987Z,52.59
2017-06-02T17:36:39.591Z,52.60
2017-06-02T17:39:07.115Z,52.84
2017-06-02T17:41:34.800Z,53.28
2017-06-02T17:44:02.309Z,53.34
2017-06-02T17:46:29.835Z,53.63
2017-06-02T17:48:57.482Z,54.41
2017-06-02T17:51:25.015Z,54.47
2017-06-02T17:53:52.600Z,54.81
2017-06-02T17:56:20.175Z,55.02
2017-06-02T17:58:47.870Z,54.83
2017-06-02T18:01:15.424Z,55.30
2017-06-02T18:03:43.661Z,55.12
2017-06-02T18:06:11.310Z,54.82
2017-06-02T18:08:38.931Z,55.89
2017-06-02T18:11:06.479Z,58.19
2017-06-02T18:13:34.000Z,58.92
2017-06-02T18:16:01.555Z,59.92
2017-06-02T18:18:29.065Z,60.27
2017-06-02T18:20:56.723Z,60.68
2017-06-02T18:23:24.298Z,60.87
2017-06-02T18:25:51.838Z,61.54
2017-06-02T18:28:19.789Z,62.35
2017-06-02T18:30:47.400Z,61.45
2017-06-02T18:33:14.951Z,61.55
2017-06-02T18:35:42.581Z,61.23
2017-06-02T18:38:10.104Z,61.41
2017-06-02T18:40:38.035Z,61.29
2017-06-02T18:43:05.571Z,61.63
2017-06-02T18:45:33.124Z,62.00
2017-06-02T18:48:00.665Z,61.50
2017-06-02T18:50:28.267Z,61.70
2017-06-02T18:52:55.939Z,61.41
2017-06-02T18:55:23.555Z,61.68
2017-06-02T18:57:51.126Z,61.52
2017-06-02T19:00:18.672Z,61.15
2017-06-02T19:02:46.249Z,60.75
2017-06-02T19:05:13.791Z,60.87
2017-06-02T19:07:41.407Z,60.80
2017-06-02T19:10:08.912Z,60.86
2017-06-02T19:12:36.473Z,60.56
2017-06-02T19:15:04.054Z,60.66
2017-06-02T19:17:31.601Z,60.74
2017-06-02T19:19:59.127Z,61.35
2017-06-02T19:22:26.680Z,60.90
2017-06-02T19:24:54.195Z,60.77
2017-06-02T19:27:25.531Z,60.78
2017-06-02T19:29:53.069Z,61.11
2017-06-02T19:32:20.635Z,61.64
2017-06-02T19:34:48.163Z,62.45
2017-06-02T19:37:15.734Z,62.88
2017-06-02T19:39:43.274Z,62.03
2017-06-02T19:42:10.809Z,62.33
2017-06-02T19:44:38.426Z,62.84
2017-06-02T19:47:05.955Z,63.28
2017-06-02T19:49:33.627Z,63.75
2017-06-02T19:52:01.166Z,63.74
2017-06-02T19:54:28.699Z,64.19
2017-06-02T19:56:56.248Z,63.99
2017-06-02T19:59:23.772Z,64.06
2017-06-02T20:01:51.736Z,64.25
2017-06-02T20:04:19.275Z,64.17
2017-06-02T20:06:46.908Z,64.29
2017-06-02T20:09:15.982Z,64.47
2017-06-02T20:11:43.643Z,64.69
2017-06-02T20:14:11.158Z,64.53
2017-06-02T20:16:38.687Z,64.08
2017-06-02T20:19:06.222Z,63.89
2017-06-02T20:21:33.747Z,63.68
2017-06-02T20:24:01.325Z,62.88
2017-06-02T20:26:28.836Z,62.71
2017-06-02T20:28:56.391Z,63.11
2017-06-02T20:31:24.097Z,63.94
2017-06-02T20:33:51.635Z,64.86
2017-06-02T20:36:19.184Z,64.61
2017-06-02T20:38:46.710Z,64.45
2017-06-02T20:41:14.328Z,64.79
2017-06-02T20:43:41.914Z,64.77
2017-06-02T20:46:09.475Z,65.10
2017-06-02T20:48:37.051Z,65.03
2017-06-02T20:51:04.781Z,65.23
2017-06-02T20:53:32.329Z,65.98
2017-06-02T20:55:59.907Z,66.24
2017-06-02T20:58:27.479Z,67.06
2017-06-02T21:00:55.051Z,66.50
2017-06-02T21:03:22.639Z,66.34
2017-06-02T21:05:50.178Z,66.61
2017-06-02T21:08:17.716Z,66.93
2017-06-02T21:10:45.250Z,67.35
2017-06-02T21:13:12.826Z,67.71
2017-06-02T21:15:40.460Z,67.96
2017-06-02T21:18:07.979Z,67.65
2017-06-02T21:20:35.600Z,67.75
2017-06-02T21:23:03.143Z,68.02
2017-06-02T21:25:30.775Z,68.29
2017-06-02T21:27:58.573Z,68.63
2017-06-02T21:30:26.103Z,68.30
2017-06-02T21:32:53.691Z,68.54
2017-06-02T21:35:21.528Z,68.41
2017-06-02T21:37:49.061Z,68.49
2017-06-02T21:40:16.735Z,68.45
2017-06-02T21:42:44.257Z,68.60
2017-06-02T21:45:11.786Z,68.66
2017-06-02T21:47:39.675Z,69.20
2017-06-02T21:50:07.207Z,68.99
2017-06-02T21:52:34.747Z,69.10
2017-06-02T21:55:02.307Z,69.14
2017-06-02T21:57:29.829Z,68.89
2017-06-02T21:59:57.450Z,69.00
2017-06-02T22:02:24.984Z,68.64
2017-06-02T22:04:52.634Z,68.75
2017-06-02T22:07:20.185Z,68.54
2017-06-02T22:09:47.856Z,68.75
2017-06-02T22:12:15.502Z,69.26
2017-06-02T22:14:44.348Z,69.74
2017-06-02T22:17:12.059Z,70.24
2017-06-02T22:19:39.676Z,70.53
2017-06-02T22:22:07.240Z,70.57
2017-06-02T22:24:34.801Z,70.73
2017-06-02T22:27:02.483Z,70.61
2017-06-02T22:29:30.059Z,70.41
2017-06-02T22:31:57.580Z,70.36
2017-06-02T22:34:25.156Z,71.58
2017-06-02T22:36:52.675Z,71.63
2017-06-02T22:39:20.563Z,71.99
2017-06-02T22:41:48.091Z,70.96
2017-06-02T22:44:15.642Z,70.22
2017-06-02T22:46:43.240Z,70.16
2017-06-02T22:49:10.795Z,70.09
2017-06-02T22:51:38.440Z,70.19
2017-06-02T22:54:06.120Z,70.20
2017-06-02T22:56:34.087Z,70.15
2017-06-02T22:59:01.636Z,69.85
2017-06-02T23:01:29.155Z,69.94
2017-06-02T23:03:56.706Z,70.48
2017-06-02T23:06:24.229Z,71.18
2017-06-02T23:08:51.797Z,71.38
2017-06-02T23:11:19.380Z,72.04
2017-06-02T23:13:47.139Z,71.81
2017-06-02T23:16:14.669Z,71.61
2017-06-02T23:18:42.234Z,71.76
2017-06-02T23:21:09.780Z,72.22
2017-06-02T23:23:37.533Z,72.30
2017-06-02T23:28:39.055Z,72.27
2017-06-02T23:31:06.605Z,72.32
2017-06-02T23:33:34.144Z,72.03
2017-06-02T23:36:02.155Z,71.83
2017-06-02T23:38:29.711Z,72.16
2017-06-02T23:40:57.272Z,72.15
2017-06-02T23:43:24.811Z,72.05
2017-06-02T23:45:52.367Z,72.38
2017-06-02T23:48:19.911Z,72.56
2017-06-02T23:50:47.465Z,72.65
2017-06-02T23:53:15.012Z,72.35
2017-06-02T23:55:42.597Z,72.49
2017-06-02T23:58:10.128Z,72.94
